createdAt,value
2023-02-22T00:01:42.946Z,4.03
2023-02-22T00:04:11.508Z,3.20
2023-02-22T00:06:38.646Z,3.67
2023-02-22T00:09:07.094Z,3.13
2023-02-22T00:11:35.522Z,3.90
2023-02-22T00:14:02.617Z,3.25
2023-02-22T00:16:31.034Z,3.47
2023-02-22T00:18:58.224Z,3.47
2023-02-22T00:21:25.553Z,3.58
2023-02-22T00:23:54.746Z,4.22
2023-02-22T00:26:23.412Z,3.47
2023-02-22T00:28:54.330Z,3.40
2023-02-22T00:31:21.633Z,3.20
2023-02-22T00:33:48.970Z,4.07
2023-02-22T00:36:16.300Z,3.55
2023-02-22T00:38:43.484Z,4.03
2023-02-22T00:41:10.908Z,4.03
2023-02-22T00:43:37.984Z,4.18
2023-02-22T00:46:05.240Z,3.97
2023-02-22T00:48:32.412Z,3.47
2023-02-22T00:50:59.538Z,4.22
2023-02-22T00:53:27.095Z,3.88
2023-02-22T00:55:54.504Z,4.07
2023-02-22T00:58:21.834Z,3.95
2023-02-22T01:00:50.346Z,3.70
2023-02-22T01:03:19.965Z,3.88
2023-02-22T01:05:47.651Z,3.47
2023-02-22T01:08:16.085Z,4.03
2023-02-22T01:10:43.754Z,3.33
2023-02-22T01:13:12.468Z,2.72
2023-02-22T01:15:41.622Z,3.63
2023-02-22T01:18:09.218Z,3.72
2023-02-22T01:20:36.434Z,3.15
2023-02-22T01:23:06.648Z,3.75
2023-02-22T01:25:34.334Z,3.10
2023-02-22T01:28:02.303Z,3.58
2023-02-22T01:30:30.914Z,4.03
2023-02-22T01:32:58.555Z,4.30
2023-02-22T01:35:29.918Z,4.18
2023-02-22T01:40:30.930Z,3.72
2023-02-22T01:42:59.852Z,4.55
2023-02-22T01:45:32.943Z,4.75
2023-02-22T01:48:05.517Z,4.82
2023-02-22T01:50:34.694Z,4.68
2023-02-22T01:53:02.659Z,4.47
2023-02-22T01:55:29.809Z,4.78
2023-02-22T01:57:56.945Z,3.92
2023-02-22T02:00:27.592Z,4.45
2023-02-22T02:03:00.326Z,4.68
2023-02-22T02:05:27.934Z,4.05
2023-02-22T02:07:55.087Z,4.45
2023-02-22T02:10:24.370Z,4.30
2023-02-22T02:12:52.626Z,4.18
2023-02-22T02:15:19.761Z,3.45
2023-02-22T02:17:47.664Z,3.80
2023-02-22T02:20:18.677Z,3.50
2023-02-22T02:22:51.571Z,2.97
2023-02-22T02:25:33.616Z,3.15
2023-02-22T02:28:00.747Z,2.88
2023-02-22T02:30:46.857Z,2.58
2023-02-22T02:33:26.150Z,3.45
2023-02-22T02:36:11.903Z,2.92
2023-02-22T02:38:47.036Z,3.08
2023-02-22T02:41:14.269Z,2.83
2023-02-22T02:43:47.769Z,3.17
2023-02-22T02:46:27.236Z,2.80
2023-02-22T02:48:57.009Z,3.05
2023-02-22T02:51:26.407Z,2.53
2023-02-22T02:53:53.729Z,3.40
2023-02-22T02:56:23.364Z,2.78
2023-02-22T02:58:52.823Z,3.08
2023-02-22T03:01:38.986Z,2.92
2023-02-22T03:04:11.141Z,2.88
2023-02-22T03:07:16.924Z,3.25
2023-02-22T03:09:58.489Z,3.42
2023-02-22T03:15:03.746Z,3.13
2023-02-22T03:17:49.719Z,2.88
2023-02-22T03:20:16.790Z,3.25
2023-02-22T03:22:48.666Z,3.22
2023-02-22T03:25:18.627Z,3.40
2023-02-22T03:27:53.463Z,3.70
2023-02-22T03:30:24.205Z,3.53
2023-02-22T03:32:53.508Z,3.70
2023-02-22T03:35:23.380Z,3.50
2023-02-22T03:37:54.573Z,3.15
2023-02-22T03:40:26.468Z,3.55
2023-02-22T03:42:59.232Z,3.58
2023-02-22T03:45:27.422Z,3.78
2023-02-22T03:47:59.247Z,4.03
2023-02-22T03:50:29.916Z,3.97
2023-02-22T03:52:59.179Z,3.53
2023-02-22T03:55:28.810Z,3.80
2023-02-22T03:57:58.540Z,3.97
2023-02-22T04:00:27.380Z,3.80
2023-02-22T04:02:55.066Z,4.00
2023-02-22T04:05:24.846Z,4.57
2023-02-22T04:07:55.728Z,4.53
2023-02-22T04:10:23.372Z,5.43
2023-02-22T04:12:51.054Z,4.78
2023-02-22T04:15:20.882Z,4.30
2023-02-22T04:17:48.028Z,5.00
2023-02-22T04:20:15.608Z,4.57
2023-02-22T04:22:42.758Z,5.03
2023-02-22T04:25:09.837Z,5.03
2023-02-22T04:27:37.033Z,4.95
2023-02-22T04:30:04.481Z,4.78
2023-02-22T04:32:31.574Z,5.15
2023-02-22T04:34:58.688Z,4.75
2023-02-22T04:37:25.835Z,4.95
2023-02-22T04:39:53.040Z,5.13
2023-02-22T04:42:20.168Z,4.70
2023-02-22T04:44:47.319Z,4.57
2023-02-22T04:47:14.892Z,4.25
2023-02-22T04:49:41.960Z,4.25
2023-02-22T04:52:09.152Z,4.68
2023-02-22T04:54:36.233Z,4.80
2023-02-22T04:57:03.411Z,5.25
2023-02-22T04:59:30.575Z,4.30
2023-02-22T05:01:57.776Z,4.38
2023-02-22T05:04:24.913Z,4.18
2023-02-22T05:06:54.661Z,4.22
2023-02-22T05:09:22.060Z,4.45
2023-02-22T05:11:49.441Z,4.00
2023-02-22T05:14:16.607Z,4.45
2023-02-22T05:16:43.759Z,4.95
2023-02-22T05:19:10.842Z,4.22
2023-02-22T05:21:37.990Z,4.70
2023-02-22T05:24:05.231Z,4.03
2023-02-22T05:26:32.311Z,4.88
2023-02-22T05:28:59.508Z,4.68
2023-02-22T05:31:26.769Z,4.20
2023-02-22T05:33:53.917Z,4.82
2023-02-22T05:36:21.116Z,4.53
2023-02-22T05:38:48.200Z,4.72
2023-02-22T05:41:15.529Z,5.10
2023-02-22T05:43:42.940Z,4.90
2023-02-22T05:46:10.112Z,4.57
2023-02-22T05:48:37.277Z,5.07
2023-02-22T05:51:05.002Z,5.10
2023-02-22T05:53:32.078Z,5.97
2023-02-22T05:55:59.251Z,5.30
2023-02-22T05:58:26.443Z,5.50
2023-02-22T06:00:53.583Z,4.90
2023-02-22T06:03:20.767Z,5.05
2023-02-22T06:05:48.032Z,5.55
2023-02-22T06:08:15.165Z,5.60
2023-02-22T06:10:42.255Z,5.15
2023-02-22T06:13:09.429Z,5.60
2023-02-22T06:15:36.537Z,5.50
2023-02-22T06:18:03.722Z,6.03
2023-02-22T06:20:31.431Z,6.00
2023-02-22T06:22:59.240Z,5.63
2023-02-22T06:25:28.634Z,6.78
2023-02-22T06:27:55.824Z,6.40
2023-02-22T06:30:24.287Z,6.63
2023-02-22T06:32:51.434Z,6.43
2023-02-22T06:35:18.991Z,6.38
2023-02-22T06:37:46.133Z,6.43
2023-02-22T06:40:13.598Z,6.93
2023-02-22T06:42:41.471Z,7.35
2023-02-22T06:45:08.982Z,7.30
2023-02-22T06:47:42.384Z,6.50
2023-02-22T06:50:18.509Z,7.80
2023-02-22T06:52:47.743Z,6.97
2023-02-22T06:55:18.782Z,6.60
2023-02-22T06:57:45.911Z,6.75
2023-02-22T07:00:13.408Z,7.75
2023-02-22T07:02:40.554Z,6.85
2023-02-22T07:05:07.718Z,7.80
2023-02-22T07:07:34.912Z,6.90
2023-02-22T07:10:02.351Z,7.30
2023-02-22T07:12:29.529Z,7.20
2023-02-22T07:14:56.692Z,7.57
2023-02-22T07:17:23.808Z,7.38
2023-02-22T07:19:50.907Z,7.53
2023-02-22T07:22:18.061Z,6.85
2023-02-22T07:24:45.139Z,7.65
2023-02-22T07:27:12.209Z,7.07
2023-02-22T07:29:39.544Z,6.88
2023-02-22T07:32:06.925Z,6.55
2023-02-22T07:34:34.035Z,6.30
2023-02-22T07:37:01.199Z,7.00
2023-02-22T07:39:28.292Z,7.25
2023-02-22T07:41:55.438Z,7.38
2023-02-22T07:44:22.596Z,6.20
2023-02-22T07:46:50.330Z,6.13
2023-02-22T07:49:17.988Z,6.35
2023-02-22T07:51:45.224Z,6.05
2023-02-22T07:54:12.336Z,6.50
2023-02-22T07:56:44.767Z,5.82
2023-02-22T07:59:11.888Z,6.30
2023-02-22T08:01:39.097Z,6.43
2023-02-22T08:04:06.290Z,6.10
2023-02-22T08:06:33.439Z,6.00
2023-02-22T08:09:00.517Z,6.10
2023-02-22T08:11:27.776Z,6.47
2023-02-22T08:13:54.959Z,5.65
2023-02-22T08:16:22.090Z,5.47
2023-02-22T08:18:49.203Z,6.38
2023-02-22T08:21:17.105Z,5.82
2023-02-22T08:23:44.368Z,5.55
2023-02-22T08:26:17.826Z,5.15
2023-02-22T08:28:44.962Z,6.00
2023-02-22T08:31:12.050Z,4.78
2023-02-22T08:33:39.200Z,4.43
2023-02-22T08:36:06.551Z,5.38
2023-02-22T08:38:34.746Z,4.32
2023-02-22T08:41:01.893Z,4.30
2023-02-22T08:43:29.067Z,5.15
2023-02-22T08:45:57.685Z,5.15
2023-02-22T08:48:25.115Z,4.85
2023-02-22T08:50:52.266Z,5.18
2023-02-22T08:53:19.542Z,4.95
2023-02-22T08:55:46.940Z,4.68
2023-02-22T08:58:14.626Z,4.53
2023-02-22T09:00:43.253Z,4.55
2023-02-22T09:03:13.261Z,4.05
2023-02-22T09:05:40.935Z,4.50
2023-02-22T09:08:08.147Z,5.05
2023-02-22T09:10:35.792Z,4.13
2023-02-22T09:13:04.106Z,4.13
2023-02-22T09:15:31.723Z,4.20
2023-02-22T09:17:59.358Z,4.32
2023-02-22T09:20:26.740Z,4.15
2023-02-22T09:22:55.085Z,4.05
2023-02-22T09:25:23.078Z,3.95
2023-02-22T09:27:53.850Z,3.97
2023-02-22T09:30:24.057Z,4.28
2023-02-22T09:32:59.025Z,3.70
2023-02-22T09:35:29.875Z,4.18
2023-02-22T09:37:57.907Z,4.10
2023-02-22T09:40:29.596Z,4.25
2023-02-22T09:42:59.729Z,3.92
2023-02-22T09:45:36.906Z,4.38
2023-02-22T09:48:19.411Z,3.47
2023-02-22T09:50:49.942Z,3.92
2023-02-22T09:53:22.129Z,4.10
2023-02-22T09:55:53.418Z,3.60
2023-02-22T09:58:20.620Z,4.45
2023-02-22T10:00:51.545Z,4.38
2023-02-22T10:03:34.803Z,3.92
2023-02-22T10:06:01.949Z,4.63
2023-02-22T10:08:31.452Z,3.92
2023-02-22T10:11:07.475Z,4.55
2023-02-22T10:13:59.130Z,4.28
2023-02-22T10:19:02.885Z,4.05
2023-02-22T10:22:05.483Z,3.95
2023-02-22T10:24:39.953Z,4.30
2023-02-22T10:27:09.762Z,4.47
2023-02-22T10:29:39.927Z,4.32
2023-02-22T10:32:12.484Z,4.97
2023-02-22T10:34:48.442Z,4.30
2023-02-22T10:37:29.255Z,4.72
2023-02-22T10:40:06.014Z,4.88
2023-02-22T10:42:33.161Z,4.80
2023-02-22T10:45:00.284Z,4.68
2023-02-22T10:47:28.013Z,5.20
2023-02-22T10:49:57.210Z,4.63
2023-02-22T10:52:24.292Z,5.53
2023-02-22T10:55:01.053Z,4.65
2023-02-22T10:57:35.638Z,5.10
2023-02-22T11:00:26.296Z,4.82
2023-02-22T11:02:56.012Z,5.03
2023-02-22T11:05:29.366Z,4.88
2023-02-22T11:08:15.387Z,5.05
2023-02-22T11:10:43.392Z,5.30
2023-02-22T11:13:19.704Z,5.30
2023-02-22T11:15:46.887Z,4.22
2023-02-22T11:18:23.544Z,5.57
2023-02-22T11:20:59.494Z,5.93
2023-02-22T11:23:26.717Z,5.38
2023-02-22T11:26:01.703Z,5.45
2023-02-22T11:28:33.411Z,4.93
2023-02-22T11:31:11.289Z,4.75
2023-02-22T11:33:39.041Z,6.57
2023-02-22T11:36:09.260Z,5.78
2023-02-22T11:38:40.331Z,5.20
2023-02-22T11:41:37.204Z,5.90
2023-02-22T11:44:15.393Z,5.07
2023-02-22T11:46:43.299Z,5.85
2023-02-22T11:49:12.104Z,5.80
2023-02-22T11:51:56.506Z,5.60
2023-02-22T11:54:31.794Z,6.35
2023-02-22T11:57:16.310Z,7.03
2023-02-22T11:59:55.693Z,6.13
2023-02-22T12:02:31.660Z,5.90
2023-02-22T12:05:08.322Z,6.43
2023-02-22T12:08:10.738Z,6.20
2023-02-22T12:10:46.993Z,6.35
2023-02-22T12:13:23.515Z,5.55
2023-02-22T12:16:09.701Z,5.97
2023-02-22T12:18:49.006Z,6.03
2023-02-22T12:21:17.376Z,6.07
2023-02-22T12:24:03.412Z,5.68
2023-02-22T12:26:33.185Z,5.07
2023-02-22T12:29:19.417Z,6.47
2023-02-22T12:31:49.422Z,6.90
2023-02-22T12:34:26.588Z,5.80
2023-02-22T12:37:01.498Z,5.63
2023-02-22T12:39:53.527Z,6.57
2023-02-22T12:42:25.214Z,5.68
2023-02-22T12:44:59.412Z,5.97
2023-02-22T12:47:31.472Z,5.88
2023-02-22T12:50:19.325Z,5.65
2023-02-22T12:53:00.599Z,5.75
2023-02-22T12:55:32.230Z,5.95
2023-02-22T12:58:02.275Z,6.18
2023-02-22T13:00:42.568Z,6.75
2023-02-22T13:03:15.487Z,5.97
2023-02-22T13:05:43.315Z,5.40
2023-02-22T13:08:13.554Z,5.40
2023-02-22T13:10:46.481Z,5.15
2023-02-22T13:13:16.391Z,5.10
2023-02-22T13:15:46.380Z,5.70
2023-02-22T13:18:42.672Z,4.97
2023-02-22T13:21:09.781Z,4.60
2023-02-22T13:23:49.119Z,5.15
2023-02-22T13:26:31.382Z,4.65
2023-02-22T13:29:05.320Z,5.75
2023-02-22T13:31:51.361Z,6.00
2023-02-22T13:34:37.188Z,5.22
2023-02-22T13:37:17.825Z,5.82
2023-02-22T13:39:54.683Z,4.82
2023-02-22T13:42:30.917Z,5.50
2023-02-22T13:44:59.662Z,5.22
2023-02-22T13:47:33.683Z,5.55
2023-02-22T13:50:19.192Z,5.55
2023-02-22T13:52:47.858Z,5.18
2023-02-22T13:55:20.541Z,4.78
2023-02-22T13:57:49.894Z,6.15
2023-02-22T14:00:23.152Z,5.15
2023-02-22T14:03:02.357Z,5.00
2023-02-22T14:05:36.154Z,5.18
2023-02-22T14:08:03.662Z,5.38
2023-02-22T14:10:38.515Z,5.88
2023-02-22T14:13:06.817Z,5.03
2023-02-22T14:15:34.535Z,5.20
2023-02-22T14:18:07.447Z,5.75
2023-02-22T14:20:36.866Z,5.13
2023-02-22T14:23:22.937Z,4.85
2023-02-22T14:25:50.648Z,5.18
2023-02-22T14:28:36.700Z,5.05
2023-02-22T14:31:29.497Z,4.88
2023-02-22T14:34:00.780Z,5.22
2023-02-22T14:36:30.950Z,5.72
2023-02-22T14:39:02.493Z,5.50
2023-02-22T14:41:30.756Z,5.35
2023-02-22T14:43:59.328Z,6.43
2023-02-22T14:46:28.668Z,4.80
2023-02-22T14:49:00.484Z,5.47
2023-02-22T14:51:40.300Z,5.78
2023-02-22T14:54:10.643Z,5.60
2023-02-22T14:56:49.249Z,5.35
2023-02-22T14:59:26.629Z,5.50
2023-02-22T15:02:11.773Z,5.60
2023-02-22T15:04:43.817Z,5.75
2023-02-22T15:07:27.490Z,5.88
2023-02-22T15:10:17.480Z,5.72
2023-02-22T15:12:51.728Z,5.22
2023-02-22T15:15:21.928Z,5.78
2023-02-22T15:17:53.131Z,7.13
2023-02-22T15:20:20.775Z,5.82
2023-02-22T15:22:49.698Z,6.43
2023-02-22T15:25:17.048Z,6.72
2023-02-22T15:27:47.746Z,6.57
2023-02-22T15:30:20.398Z,5.97
2023-02-22T15:33:03.233Z,5.30
2023-02-22T15:35:32.887Z,5.60
2023-02-22T15:38:07.485Z,6.03
2023-02-22T15:40:35.614Z,5.45
2023-02-22T15:43:03.923Z,4.55
2023-02-22T15:45:34.752Z,6.18
2023-02-22T15:48:02.095Z,5.32
2023-02-22T15:50:33.938Z,5.15
2023-02-22T15:53:09.550Z,5.53
2023-02-22T15:55:41.794Z,5.35
2023-02-22T15:58:10.964Z,4.95
2023-02-22T16:00:39.257Z,5.10
2023-02-22T16:03:09.334Z,5.22
2023-02-22T16:05:47.917Z,4.70
2023-02-22T16:08:17.973Z,4.32
2023-02-22T16:11:14.423Z,4.82
2023-02-22T16:13:42.624Z,4.90
2023-02-22T16:16:24.793Z,5.28
2023-02-22T16:18:52.770Z,4.95
2023-02-22T16:21:21.617Z,4.45
2023-02-22T16:23:48.932Z,5.25
2023-02-22T16:26:29.587Z,4.57
2023-02-22T16:28:58.224Z,5.38
2023-02-22T16:31:27.093Z,5.13
2023-02-22T16:33:54.756Z,4.97
2023-02-22T16:36:23.909Z,5.47
2023-02-22T16:38:51.755Z,4.95
2023-02-22T16:41:21.930Z,5.88
2023-02-22T16:43:51.394Z,5.57
2023-02-22T16:46:21.915Z,5.50
2023-02-22T16:48:49.169Z,4.72
2023-02-22T16:51:27.256Z,5.50
2023-02-22T16:53:54.925Z,5.43
2023-02-22T16:56:25.084Z,4.45
2023-02-22T16:58:53.515Z,5.25
2023-02-22T17:01:23.375Z,5.32
2023-02-22T17:03:53.930Z,7.20
2023-02-22T17:06:21.298Z,5.05
2023-02-22T17:08:51.931Z,5.18
2023-02-22T17:11:19.511Z,5.97
2023-02-22T17:13:51.564Z,5.13
2023-02-22T17:16:19.241Z,4.95
2023-02-22T17:18:46.527Z,5.82
2023-02-22T17:21:13.880Z,5.82
2023-02-22T17:23:41.045Z,6.32
2023-02-22T17:26:08.236Z,6.20
2023-02-22T17:28:35.333Z,5.50
2023-02-22T17:31:02.581Z,5.85
2023-02-22T17:33:32.919Z,5.43
2023-02-22T17:36:01.905Z,5.67
2023-02-22T17:38:30.474Z,5.43
2023-02-22T17:40:59.907Z,5.25
2023-02-22T17:43:30.689Z,5.13
2023-02-22T17:45:57.941Z,5.55
2023-02-22T17:48:25.178Z,5.85
2023-02-22T17:50:52.707Z,5.93
2023-02-22T17:53:22.706Z,6.03
2023-02-22T17:55:50.385Z,5.95
2023-02-22T17:58:17.602Z,6.47
2023-02-22T18:00:46.788Z,6.68
2023-02-22T18:03:16.292Z,7.10
2023-02-22T18:05:48.061Z,5.80
2023-02-22T18:08:15.649Z,6.35
2023-02-22T18:10:43.840Z,6.10
2023-02-22T18:13:13.608Z,5.85
2023-02-22T18:15:40.958Z,6.90
2023-02-22T18:18:08.243Z,6.18
2023-02-22T18:20:38.497Z,6.35
2023-02-22T18:23:09.831Z,6.32
2023-02-22T18:25:37.481Z,6.57
2023-02-22T18:28:06.312Z,6.80
2023-02-22T18:30:35.891Z,6.35
2023-02-22T18:33:03.863Z,6.63
2023-02-22T18:35:31.651Z,6.18
2023-02-22T18:37:58.806Z,7.38
2023-02-22T18:40:25.919Z,6.63
2023-02-22T18:42:53.004Z,6.63
2023-02-22T18:45:21.210Z,6.50
2023-02-22T18:47:48.309Z,6.40
2023-02-22T18:50:18.522Z,8.05
2023-02-22T18:52:46.034Z,8.02
2023-02-22T18:55:21.066Z,6.75
2023-02-22T18:57:50.704Z,6.43
2023-02-22T19:00:19.405Z,6.88
2023-02-22T19:02:46.585Z,6.93
2023-02-22T19:05:17.392Z,7.03
2023-02-22T19:07:45.066Z,6.30
2023-02-22T19:10:12.202Z,6.30
2023-02-22T19:12:39.389Z,6.25
2023-02-22T19:15:06.616Z,5.95
2023-02-22T19:17:36.473Z,6.07
2023-02-22T19:20:06.844Z,6.20
2023-02-22T19:22:34.764Z,6.17
2023-02-22T19:25:03.195Z,6.18
2023-02-22T19:27:30.675Z,5.57
2023-02-22T19:29:58.501Z,6.07
2023-02-22T19:32:25.856Z,6.00
2023-02-22T19:34:59.644Z,5.97
2023-02-22T19:37:27.801Z,6.15
2023-02-22T19:39:54.908Z,5.28
2023-02-22T19:42:22.053Z,5.95
2023-02-22T19:44:49.146Z,5.93
2023-02-22T19:47:16.268Z,5.50
2023-02-22T19:49:43.580Z,5.63
2023-02-22T19:52:10.747Z,5.90
2023-02-22T19:54:37.917Z,5.72
2023-02-22T19:57:05.995Z,5.03
2023-02-22T19:59:33.106Z,5.80
2023-02-22T20:02:00.256Z,6.20
2023-02-22T20:04:30.638Z,6.13
2023-02-22T20:06:58.166Z,5.85
2023-02-22T20:09:29.876Z,5.70
2023-02-22T20:11:57.330Z,5.65
2023-02-22T20:14:26.086Z,5.72
2023-02-22T20:16:53.650Z,6.20
2023-02-22T20:19:22.574Z,6.10
2023-02-22T20:21:50.004Z,6.35
2023-02-22T20:24:18.474Z,6.00
2023-02-22T20:26:47.704Z,6.00
2023-02-22T20:29:15.106Z,6.63
2023-02-22T20:31:43.067Z,7.50
2023-02-22T20:34:11.631Z,6.97
2023-02-22T20:36:40.036Z,6.70
2023-02-22T20:39:07.768Z,6.38
2023-02-22T20:41:35.879Z,7.35
2023-02-22T20:44:06.917Z,7.28
2023-02-22T20:46:37.334Z,7.38
2023-02-22T20:49:11.105Z,6.57
2023-02-22T20:51:42.082Z,6.20
2023-02-22T20:54:12.058Z,6.07
2023-02-22T20:56:41.899Z,6.38
2023-02-22T20:59:10.839Z,6.82
2023-02-22T21:01:38.047Z,7.43
2023-02-22T21:04:06.553Z,6.93
2023-02-22T21:06:37.261Z,6.80
2023-02-22T21:09:07.394Z,6.22
2023-02-22T21:11:34.892Z,6.32
2023-02-22T21:14:02.226Z,6.78
2023-02-22T21:16:35.438Z,6.53
2023-02-22T21:19:04.832Z,6.53
2023-02-22T21:21:32.550Z,7.00
2023-02-22T21:24:01.844Z,7.28
2023-02-22T21:26:30.701Z,7.25
2023-02-22T21:29:04.686Z,7.03
2023-02-22T21:31:33.057Z,7.07
2023-02-22T21:34:00.811Z,6.97
2023-02-22T21:36:29.028Z,6.25
2023-02-22T21:39:00.332Z,7.00
2023-02-22T21:43:55.511Z,6.43
2023-02-22T21:46:22.748Z,6.18
2023-02-22T21:48:49.961Z,6.25
2023-02-22T21:51:19.627Z,7.07
2023-02-22T21:53:47.841Z,7.20
2023-02-22T21:56:15.734Z,8.05
2023-02-22T21:58:43.875Z,7.25
2023-02-22T22:01:17.022Z,8.07
2023-02-22T22:03:45.184Z,6.90
2023-02-22T22:06:13.543Z,7.15
2023-02-22T22:08:41.728Z,6.60
2023-02-22T22:11:09.975Z,6.82
2023-02-22T22:13:38.299Z,7.47
2023-02-22T22:16:08.014Z,7.50
2023-02-22T22:18:36.519Z,8.00
2023-02-22T22:21:10.672Z,7.72
2023-02-22T22:23:39.109Z,8.73
2023-02-22T22:26:13.101Z,7.70
2023-02-22T22:28:41.338Z,8.27
2023-02-22T22:31:09.700Z,8.05
2023-02-22T22:33:37.432Z,8.75
2023-02-22T22:36:05.960Z,8.15
2023-02-22T22:38:33.627Z,8.48
2023-02-22T22:41:01.218Z,8.65
2023-02-22T22:43:29.427Z,7.65
2023-02-22T22:45:59.503Z,7.57
2023-02-22T22:48:27.608Z,8.10
2023-02-22T22:51:06.618Z,7.95
2023-02-22T22:53:34.414Z,8.05
2023-02-22T22:56:05.554Z,7.75
2023-02-22T22:58:33.889Z,8.40
2023-02-22T23:01:06.284Z,7.43
2023-02-22T23:03:37.329Z,7.18
2023-02-22T23:06:05.449Z,8.00
2023-02-22T23:08:43.197Z,5.72
2023-02-22T23:11:13.459Z,6.60
2023-02-22T23:13:40.652Z,6.38
2023-02-22T23:16:13.771Z,6.40
2023-02-22T23:18:43.280Z,5.78
2023-02-22T23:21:10.949Z,6.43
2023-02-22T23:23:38.614Z,6.85
2023-02-22T23:26:17.937Z,6.97
2023-02-22T23:28:46.292Z,7.07
2023-02-22T23:31:15.024Z,7.80
2023-02-22T23:33:43.027Z,7.40
2023-02-22T23:36:12.451Z,7.03
2023-02-22T23:38:41.837Z,7.15
2023-02-22T23:41:10.497Z,7.20
2023-02-22T23:43:41.388Z,7.28
2023-02-22T23:46:10.791Z,7.25
2023-02-22T23:48:38.799Z,7.18
2023-02-22T23:51:09.966Z,6.95
2023-02-22T23:53:38.372Z,8.00
2023-02-22T23:56:10.108Z,7.88
2023-02-22T23:58:38.330Z,6.65
